createdAt,value
2023-01-28T00:02:42.533Z,8.47
2023-01-28T00:05:45.837Z,5.88
2023-01-28T00:08:49.989Z,6.95
2023-01-28T00:11:53.525Z,7.55
2023-01-28T00:14:56.780Z,6.85
2023-01-28T00:18:01.062Z,6.65
2023-01-28T00:21:10.622Z,7.18
2023-01-28T00:24:13.590Z,5.77
2023-01-28T00:27:16.739Z,5.82
2023-01-28T00:30:20.792Z,6.57
2023-01-28T00:33:25.458Z,6.13
2023-01-28T00:36:29.002Z,4.60
2023-01-28T00:39:31.913Z,6.07
2023-01-28T00:42:38.240Z,5.57
2023-01-28T00:45:41.192Z,5.00
2023-01-28T00:48:45.745Z,4.00
2023-01-28T00:51:49.623Z,3.95
2023-01-28T00:54:52.981Z,2.83
2023-01-28T00:57:56.600Z,3.80
2023-01-28T01:01:12.441Z,3.75
2023-01-28T01:04:27.129Z,4.87
2023-01-28T01:07:44.880Z,4.70
2023-01-28T01:10:48.446Z,4.68
2023-01-28T01:13:57.778Z,7.32
2023-01-28T01:17:01.637Z,6.63
2023-01-28T01:20:06.991Z,8.55
2023-01-28T01:23:10.704Z,5.85
2023-01-28T01:26:15.928Z,6.33
2023-01-28T01:29:19.626Z,7.72
2023-01-28T01:32:24.300Z,8.15
2023-01-28T01:35:28.089Z,9.57
2023-01-28T01:38:31.125Z,9.43
2023-01-28T01:41:34.408Z,8.02
2023-01-28T01:45:02.204Z,6.57
2023-01-28T01:48:22.841Z,7.63
2023-01-28T01:51:32.153Z,8.55
2023-01-28T01:54:37.835Z,10.20
2023-01-28T01:57:42.816Z,8.53
2023-01-28T02:00:47.433Z,7.75
2023-01-28T02:03:51.844Z,12.18
2023-01-28T02:06:54.850Z,20.13
2023-01-28T02:09:58.439Z,19.50
2023-01-28T02:13:02.502Z,16.42
2023-01-28T02:16:06.993Z,20.30
2023-01-28T02:19:11.513Z,27.27
2023-01-28T02:22:26.848Z,29.48
2023-01-28T02:26:00.828Z,29.48
2023-01-28T02:29:11.141Z,21.00
2023-01-28T02:32:20.623Z,20.42
2023-01-28T02:35:40.708Z,19.00
2023-01-28T02:38:50.051Z,12.80
2023-01-28T02:42:07.675Z,15.65
2023-01-28T02:45:54.343Z,15.88
2023-01-28T02:48:57.301Z,17.00
2023-01-28T02:52:49.036Z,21.77
2023-01-28T02:56:17.195Z,22.52
2023-01-28T03:00:08.446Z,20.85
2023-01-28T03:03:29.172Z,21.00
2023-01-28T03:06:40.107Z,21.70
2023-01-28T03:09:46.875Z,18.20
2023-01-28T03:13:13.266Z,16.98
2023-01-28T03:16:35.768Z,16.35
2023-01-28T03:19:57.165Z,17.05
2023-01-28T03:23:22.998Z,20.05
2023-01-28T03:26:48.549Z,20.75
2023-01-28T03:30:16.270Z,22.75
2023-01-28T03:33:38.931Z,23.63
2023-01-28T03:36:51.497Z,20.48
2023-01-28T03:40:15.272Z,20.95
2023-01-28T03:43:20.041Z,22.00
2023-01-28T03:46:24.540Z,20.77
2023-01-28T03:49:28.689Z,20.63
2023-01-28T03:52:33.783Z,21.70
2023-01-28T03:56:03.367Z,23.93
2023-01-28T03:59:08.230Z,29.83
2023-01-28T04:02:13.514Z,24.98
2023-01-28T04:05:20.787Z,30.70
2023-01-28T04:08:25.890Z,34.58
2023-01-28T04:12:02.016Z,43.50
2023-01-28T04:15:18.268Z,36.63
2023-01-28T04:18:28.204Z,33.50
2023-01-28T04:21:33.846Z,29.50
2023-01-28T04:24:39.488Z,57.00
2023-01-28T04:27:43.134Z,54.10
2023-01-28T04:30:55.834Z,72.95
2023-01-28T04:34:20.983Z,53.88
2023-01-28T04:37:33.733Z,51.42
2023-01-28T04:40:45.122Z,45.03
2023-01-28T04:44:00.124Z,36.80
2023-01-28T04:47:30.536Z,35.58
2023-01-28T04:50:55.353Z,46.22
2023-01-28T04:54:16.731Z,39.73
2023-01-28T04:57:20.565Z,46.38
2023-01-28T05:00:24.748Z,33.40
2023-01-28T05:03:28.217Z,31.65
2023-01-28T05:06:33.262Z,34.15
2023-01-28T05:09:43.070Z,33.83
2023-01-28T05:12:48.208Z,16.55
2023-01-28T05:15:54.804Z,17.27
2023-01-28T05:18:58.483Z,13.15
2023-01-28T05:22:09.009Z,11.55
2023-01-28T05:25:20.411Z,6.50
2023-01-28T05:28:24.137Z,7.25
2023-01-28T05:31:28.024Z,6.53
2023-01-28T05:34:32.243Z,8.32
2023-01-28T05:37:39.804Z,9.80
2023-01-28T05:40:43.299Z,17.07
2023-01-28T05:43:46.256Z,17.25
2023-01-28T05:46:50.042Z,14.30
2023-01-28T05:50:15.277Z,11.95
2023-01-28T05:53:21.275Z,10.68
2023-01-28T05:56:26.750Z,7.93
2023-01-28T05:59:29.680Z,10.32
2023-01-28T06:02:34.715Z,17.90
2023-01-28T06:05:40.148Z,17.67
2023-01-28T06:08:43.402Z,14.35
2023-01-28T06:11:48.018Z,12.87
2023-01-28T06:14:51.331Z,14.20
2023-01-28T06:18:13.361Z,13.85
2023-01-28T06:21:16.742Z,13.07
2023-01-28T06:24:21.175Z,13.73
2023-01-28T06:27:24.801Z,16.00
2023-01-28T06:30:28.223Z,15.75
2023-01-28T06:33:33.029Z,16.88
2023-01-28T06:36:37.049Z,14.70
2023-01-28T06:39:39.970Z,14.60
2023-01-28T06:42:42.925Z,10.87
2023-01-28T06:45:46.525Z,8.80
2023-01-28T06:48:49.441Z,5.40
2023-01-28T06:51:52.236Z,6.97
2023-01-28T06:54:55.952Z,6.82
2023-01-28T06:57:58.933Z,7.73
2023-01-28T07:01:02.949Z,11.02
2023-01-28T07:04:05.959Z,7.88
2023-01-28T07:07:09.901Z,6.45
2023-01-28T07:10:13.118Z,5.43
2023-01-28T07:13:16.397Z,3.80
2023-01-28T07:16:19.405Z,8.68
2023-01-28T07:19:22.599Z,8.43
2023-01-28T07:22:26.130Z,5.75
2023-01-28T07:25:29.465Z,7.47
2023-01-28T07:28:33.482Z,11.70
2023-01-28T07:31:36.903Z,7.18
2023-01-28T07:34:43.821Z,6.85
2023-01-28T07:37:54.877Z,3.40
2023-01-28T07:40:58.831Z,3.85
2023-01-28T07:44:02.547Z,3.88
2023-01-28T07:47:06.937Z,3.25
2023-01-28T07:50:12.497Z,2.43
2023-01-28T07:53:16.556Z,3.88
2023-01-28T07:56:20.229Z,3.55
2023-01-28T07:59:23.829Z,2.88
2023-01-28T08:02:29.896Z,3.40
2023-01-28T08:05:51.836Z,3.25
2023-01-28T08:08:54.777Z,4.28
2023-01-28T08:11:58.729Z,3.00
2023-01-28T08:15:02.282Z,2.13
2023-01-28T08:18:07.386Z,2.97
2023-01-28T08:21:11.008Z,3.03
2023-01-28T08:24:15.143Z,4.35
2023-01-28T08:27:18.720Z,3.70
2023-01-28T08:30:22.873Z,4.35
2023-01-28T08:33:28.089Z,4.70
2023-01-28T08:36:30.896Z,4.57
2023-01-28T08:39:35.344Z,5.87
2023-01-28T08:42:38.664Z,5.68
2023-01-28T08:45:42.097Z,5.82
2023-01-28T08:49:09.847Z,5.63
2023-01-28T08:52:13.797Z,7.80
2023-01-28T08:55:19.539Z,9.13
2023-01-28T08:58:23.229Z,7.30
2023-01-28T09:01:29.816Z,8.63
2023-01-28T09:04:33.939Z,12.25
2023-01-28T09:07:38.380Z,15.02
2023-01-28T09:10:43.094Z,14.73
2023-01-28T09:13:46.073Z,8.68
2023-01-28T09:16:49.992Z,13.45
2023-01-28T09:19:53.669Z,10.50
2023-01-28T09:22:56.849Z,14.17
2023-01-28T09:26:04.052Z,11.93
2023-01-28T09:29:07.332Z,17.67
2023-01-28T09:32:10.532Z,19.63
2023-01-28T09:35:16.159Z,12.50
2023-01-28T09:38:19.718Z,10.68
2023-01-28T09:41:58.374Z,14.50
2023-01-28T09:45:03.402Z,8.98
2023-01-28T09:48:13.131Z,9.90
2023-01-28T09:51:27.792Z,10.27
2023-01-28T09:54:49.754Z,11.73
2023-01-28T09:57:57.539Z,14.48
2023-01-28T10:01:23.500Z,11.32
2023-01-28T10:04:37.978Z,12.60
2023-01-28T10:07:56.779Z,17.80
2023-01-28T10:11:36.002Z,19.55
2023-01-28T10:15:05.715Z,23.98
2023-01-28T10:18:18.401Z,36.33
2023-01-28T10:21:31.832Z,27.20
2023-01-28T10:24:46.464Z,29.80
2023-01-28T10:27:51.772Z,31.93
2023-01-28T10:30:56.350Z,31.40
2023-01-28T10:34:00.995Z,33.55
2023-01-28T10:37:04.983Z,38.77
2023-01-28T10:40:17.879Z,53.17
2023-01-28T10:43:25.746Z,90.93
2023-01-28T10:46:33.940Z,67.20
2023-01-28T10:49:44.970Z,73.32
2023-01-28T10:53:07.338Z,70.63
2023-01-28T10:56:17.008Z,60.00
2023-01-28T10:59:33.531Z,64.17
2023-01-28T11:02:38.020Z,42.00
2023-01-28T11:05:52.361Z,27.20
2023-01-28T11:09:01.236Z,24.00
2023-01-28T11:12:26.563Z,28.63
2023-01-28T11:15:30.575Z,26.48
2023-01-28T11:18:42.141Z,36.75
2023-01-28T11:21:52.275Z,24.20
2023-01-28T11:24:56.301Z,30.10
2023-01-28T11:28:02.608Z,20.52
2023-01-28T11:31:06.663Z,13.23
2023-01-28T11:34:16.013Z,14.07
2023-01-28T11:37:24.929Z,6.20
2023-01-28T11:40:29.352Z,4.73
2023-01-28T11:43:33.005Z,7.15
2023-01-28T11:46:42.309Z,6.68
2023-01-28T11:49:56.087Z,8.05
2023-01-28T11:53:33.576Z,7.72
2023-01-28T11:56:59.626Z,8.48
2023-01-28T12:00:21.182Z,14.07
2023-01-28T12:03:29.042Z,15.20
2023-01-28T12:07:00.156Z,13.68
2023-01-28T12:10:14.380Z,17.30
2023-01-28T12:13:27.980Z,27.07
2023-01-28T12:16:49.275Z,21.75
2023-01-28T12:19:55.057Z,23.13
2023-01-28T12:23:55.715Z,23.05
2023-01-28T12:27:11.298Z,8.57
2023-01-28T12:30:26.891Z,10.57
2023-01-28T12:33:55.173Z,10.38
2023-01-28T12:37:10.749Z,13.73
2023-01-28T12:40:39.227Z,10.57
2023-01-28T12:43:46.280Z,9.77
2023-01-28T12:47:10.366Z,13.03
2023-01-28T12:50:29.763Z,12.23
2023-01-28T12:53:45.744Z,13.98
2023-01-28T12:56:55.341Z,9.57
2023-01-28T13:00:18.008Z,9.65
2023-01-28T13:03:34.923Z,8.45
2023-01-28T13:06:48.591Z,11.45
2023-01-28T13:10:05.196Z,15.67
2023-01-28T13:13:19.324Z,22.55
2023-01-28T13:16:35.915Z,24.23
2023-01-28T13:19:43.169Z,24.63
2023-01-28T13:22:46.728Z,21.13
2023-01-28T13:25:53.262Z,14.02
2023-01-28T13:29:17.183Z,7.88
2023-01-28T13:32:33.594Z,6.85
2023-01-28T13:35:39.944Z,5.25
2023-01-28T13:38:44.655Z,6.47
2023-01-28T13:42:10.723Z,6.03
2023-01-28T13:45:24.952Z,10.18
2023-01-28T13:48:40.808Z,16.30
2023-01-28T13:52:05.413Z,32.40
2023-01-28T13:55:41.371Z,23.27
2023-01-28T13:59:10.027Z,45.72
2023-01-28T14:02:51.330Z,25.63
2023-01-28T14:06:09.572Z,28.10
2023-01-28T14:09:16.449Z,16.92
2023-01-28T14:12:40.806Z,17.23
2023-01-28T14:16:14.553Z,19.03
2023-01-28T14:19:19.825Z,8.85
2023-01-28T14:22:47.825Z,16.13
2023-01-28T14:26:11.772Z,6.37
2023-01-28T14:29:14.980Z,11.98
2023-01-28T14:32:27.581Z,12.93
2023-01-28T14:35:38.473Z,11.52
2023-01-28T14:38:45.134Z,9.15
2023-01-28T14:41:51.515Z,20.95
2023-01-28T14:45:03.087Z,17.13
2023-01-28T14:48:18.441Z,26.33
2023-01-28T14:51:24.852Z,28.25
2023-01-28T14:54:36.904Z,23.02
2023-01-28T14:57:50.352Z,29.80
2023-01-28T15:00:56.659Z,28.63
2023-01-28T15:04:00.483Z,27.92
2023-01-28T15:07:22.656Z,32.10
2023-01-28T15:10:32.132Z,27.48
2023-01-28T15:13:42.395Z,28.20
2023-01-28T15:16:49.932Z,26.17
2023-01-28T15:19:57.433Z,18.57
2023-01-28T15:23:03.474Z,10.10
2023-01-28T15:26:10.525Z,10.30
2023-01-28T15:29:53.559Z,13.83
2023-01-28T15:33:06.986Z,23.42
2023-01-28T15:36:10.902Z,21.38
2023-01-28T15:39:25.884Z,10.50
2023-01-28T15:42:30.371Z,20.63
2023-01-28T15:45:33.946Z,15.95
2023-01-28T15:48:37.962Z,14.77
2023-01-28T15:51:41.946Z,11.23
2023-01-28T15:54:49.862Z,14.98
2023-01-28T15:57:52.758Z,14.75
2023-01-28T16:01:11.008Z,17.90
2023-01-28T16:04:27.074Z,16.65
2023-01-28T16:07:33.483Z,19.65
2023-01-28T16:10:37.733Z,15.60
2023-01-28T16:13:45.192Z,19.35
2023-01-28T16:16:49.378Z,20.65
2023-01-28T16:20:03.128Z,22.60
2023-01-28T16:23:22.613Z,25.73
2023-01-28T16:26:28.577Z,19.83
2023-01-28T16:29:32.812Z,17.02
2023-01-28T16:32:39.410Z,12.00
2023-01-28T16:36:04.412Z,7.07
2023-01-28T16:39:05.952Z,9.48
2023-01-28T16:45:37.727Z,9.95
2023-01-28T16:48:44.340Z,9.20
2023-01-28T16:51:47.953Z,11.93
2023-01-28T16:54:51.585Z,13.30
2023-01-28T16:57:57.750Z,7.30
2023-01-28T17:01:01.968Z,5.95
2023-01-28T17:04:12.058Z,7.77
2023-01-28T17:07:15.981Z,8.48
2023-01-28T17:10:21.222Z,8.38
2023-01-28T17:13:25.167Z,6.45
2023-01-28T17:16:28.824Z,8.38
2023-01-28T17:19:32.462Z,9.80
2023-01-28T17:22:41.100Z,8.23
2023-01-28T17:25:44.402Z,9.10
2023-01-28T17:28:53.880Z,8.43
2023-01-28T17:31:56.817Z,6.57
2023-01-28T17:35:00.460Z,8.23
2023-01-28T17:38:05.938Z,8.35
2023-01-28T17:41:09.765Z,9.68
2023-01-28T17:44:15.492Z,11.63
2023-01-28T17:47:18.681Z,9.85
2023-01-28T17:50:21.887Z,6.88
2023-01-28T17:53:25.293Z,5.03
2023-01-28T17:56:29.978Z,4.40
2023-01-28T17:59:33.595Z,4.10
2023-01-28T18:02:36.531Z,3.47
2023-01-28T18:05:40.464Z,5.60
2023-01-28T18:08:44.442Z,4.10
2023-01-28T18:11:48.105Z,4.10
2023-01-28T18:14:51.737Z,3.15
2023-01-28T18:17:54.705Z,3.15
2023-01-28T18:21:06.278Z,2.80
2023-01-28T18:24:10.812Z,2.70
2023-01-28T18:27:17.489Z,2.63
2023-01-28T18:30:21.347Z,2.97
2023-01-28T18:33:25.011Z,3.15
2023-01-28T18:36:28.057Z,2.40
2023-01-28T18:39:31.606Z,3.15
2023-01-28T18:42:37.961Z,2.13
2023-01-28T18:45:46.402Z,2.72
2023-01-28T18:48:50.110Z,3.33
2023-01-28T18:51:53.569Z,4.03
2023-01-28T18:54:58.125Z,3.72
2023-01-28T18:58:01.117Z,3.30
2023-01-28T19:01:09.856Z,2.38
2023-01-28T19:04:14.618Z,3.15
2023-01-28T19:07:17.548Z,3.20
2023-01-28T19:10:24.185Z,3.28
2023-01-28T19:13:29.192Z,3.08
2023-01-28T19:16:35.326Z,3.72
2023-01-28T19:19:38.370Z,3.33
2023-01-28T19:22:42.382Z,3.05
2023-01-28T19:25:46.108Z,3.60
2023-01-28T19:28:50.517Z,3.13
2023-01-28T19:31:54.290Z,3.63
2023-01-28T19:34:58.461Z,3.55
2023-01-28T19:38:02.300Z,3.17
2023-01-28T19:41:07.483Z,3.97
2023-01-28T19:44:11.152Z,3.65
2023-01-28T19:47:15.950Z,4.68
2023-01-28T19:50:18.968Z,2.95
2023-01-28T19:53:25.443Z,2.72
2023-01-28T19:56:30.441Z,3.42
2023-01-28T19:59:33.685Z,2.73
2023-01-28T20:02:36.580Z,3.50
2023-01-28T20:05:42.525Z,3.08
2023-01-28T20:08:51.451Z,2.80
2023-01-28T20:11:55.404Z,3.30
2023-01-28T20:14:59.021Z,3.00
2023-01-28T20:18:04.732Z,3.65
2023-01-28T20:21:08.812Z,3.92
2023-01-28T20:24:14.740Z,3.00
2023-01-28T20:27:18.314Z,3.10
2023-01-28T20:30:21.679Z,3.13
2023-01-28T20:33:24.868Z,3.10
2023-01-28T20:36:28.383Z,3.08
2023-01-28T20:39:31.261Z,4.27
2023-01-28T20:42:35.010Z,3.00
2023-01-28T20:45:38.224Z,3.80
2023-01-28T20:48:42.358Z,3.83
2023-01-28T20:51:45.910Z,4.38
2023-01-28T20:54:59.086Z,4.28
2023-01-28T20:58:02.083Z,4.00
2023-01-28T21:01:06.719Z,3.87
2023-01-28T21:04:10.911Z,3.10
2023-01-28T21:07:15.155Z,3.40
2023-01-28T21:10:18.450Z,2.83
2023-01-28T21:13:21.584Z,3.40
2023-01-28T21:16:25.439Z,5.50
2023-01-28T21:19:29.431Z,7.93
2023-01-28T21:22:32.369Z,11.63
2023-01-28T21:25:36.213Z,7.40
2023-01-28T21:28:38.996Z,8.65
2023-01-28T21:31:43.167Z,7.10
2023-01-28T21:34:46.932Z,7.55
2023-01-28T21:37:50.542Z,6.65
2023-01-28T21:40:54.216Z,4.80
2023-01-28T21:43:58.873Z,6.00
2023-01-28T21:47:02.077Z,3.60
2023-01-28T21:50:06.524Z,3.38
2023-01-28T21:53:10.113Z,3.15
2023-01-28T21:56:13.670Z,3.30
2023-01-28T21:59:33.109Z,3.90
2023-01-28T22:02:39.079Z,4.70
2023-01-28T22:05:43.108Z,5.75
2023-01-28T22:08:46.753Z,9.13
2023-01-28T22:11:50.321Z,10.83
2023-01-28T22:14:54.060Z,15.90
2023-01-28T22:17:57.899Z,7.43
2023-01-28T22:21:03.108Z,11.13
2023-01-28T22:24:06.644Z,3.80
2023-01-28T22:27:09.626Z,3.20
2023-01-28T22:30:13.075Z,3.42
2023-01-28T22:33:16.863Z,2.97
2023-01-28T22:36:20.944Z,3.30
2023-01-28T22:39:24.834Z,2.33
2023-01-28T22:42:27.794Z,6.10
2023-01-28T22:45:30.791Z,4.20
2023-01-28T22:48:36.404Z,5.20
2023-01-28T22:51:40.019Z,4.63
2023-01-28T22:54:43.994Z,5.82
2023-01-28T22:57:47.212Z,6.38
2023-01-28T23:00:51.325Z,6.22
2023-01-28T23:03:56.474Z,6.37
2023-01-28T23:06:59.395Z,5.93
2023-01-28T23:10:02.245Z,7.07
2023-01-28T23:13:05.429Z,13.63
2023-01-28T23:16:27.663Z,14.80
2023-01-28T23:19:49.040Z,13.88
2023-01-28T23:23:12.699Z,18.63
2023-01-28T23:26:18.801Z,14.95
2023-01-28T23:29:27.645Z,13.70
2023-01-28T23:32:31.871Z,11.18
2023-01-28T23:35:35.662Z,10.73
2023-01-28T23:38:39.542Z,16.60
2023-01-28T23:41:43.120Z,17.98
2023-01-28T23:44:47.684Z,15.97
2023-01-28T23:47:53.004Z,17.08
2023-01-28T23:50:57.121Z,12.02
2023-01-28T23:54:00.822Z,18.33
2023-01-28T23:57:05.641Z,18.13
